Time;durP1;ratioP1;P1;durP2;ratioP2;P2;SDS_P1;SDS_P2;PMS_P1;PMS_P2;Temp;Humidity;BMP_temperature;BMP_pressure;BME280_temperature;BME280_humidity;BME280_pressure;Samples;Min_cycle;Max_cycle;Signal;HPM_P1;HPM_P2
2022/03/05 00:00:32;;;;;;;10.65;4.75;;;-2.90;88.10;;;;;;5055476;28;20053;-71
2022/03/05 00:02:59;;;;;;;15.18;5.63;;;-3.00;89.30;;;;;;5055250;28;20013;-71
2022/03/05 00:05:24;;;;;;;11.45;4.88;;;-3.10;89.60;;;;;;5055460;28;20354;-71
2022/03/05 00:07:50;;;;;;;11.43;4.95;;;-3.10;90.10;;;;;;5053891;28;20032;-71
2022/03/05 00:10:18;;;;;;;12.43;5.20;;;-3.00;90.30;;;;;;5055546;28;20057;-70
2022/03/05 00:12:44;;;;;;;10.82;4.85;;;-3.00;90.40;;;;;;5055541;28;20029;-70
2022/03/05 00:15:10;;;;;;;13.82;5.38;;;-3.00;90.40;;;;;;5055228;28;20079;-71
2022/03/05 00:17:35;;;;;;;12.00;4.88;;;-2.90;90.40;;;;;;5054853;28;20032;-70
2022/03/05 00:20:02;;;;;;;12.15;5.00;;;-2.90;90.30;;;;;;5053584;28;20056;-70
2022/03/05 00:22:27;;;;;;;16.58;6.07;;;-2.90;90.20;;;;;;5054783;28;20029;-70
2022/03/05 00:24:53;;;;;;;27.95;10.20;;;-2.80;90.20;;;;;;5055074;28;20021;-70
2022/03/05 00:27:19;;;;;;;37.53;11.30;;;-2.80;90.30;;;;;;5055276;28;20099;-70
2022/03/05 00:29:44;;;;;;;25.90;9.05;;;-2.80;90.40;;;;;;5055236;28;20028;-70
2022/03/05 00:32:11;;;;;;;19.05;6.45;;;-2.80;90.40;;;;;;5054695;28;20103;-70
2022/03/05 00:34:37;;;;;;;16.13;5.88;;;-2.90;90.50;;;;;;5054930;28;20029;-70
2022/03/05 00:37:05;;;;;;;10.93;5.20;;;-2.90;90.60;;;;;;5054497;28;20112;-70
2022/03/05 00:39:31;;;;;;;15.90;5.45;;;-2.90;90.60;;;;;;5054415;28;20483;-70
2022/03/05 00:41:57;;;;;;;11.75;4.57;;;-2.90;90.60;;;;;;5053593;28;20496;-70
2022/03/05 00:44:23;;;;;;;8.75;4.47;;;-2.90;90.50;;;;;;5054410;28;20029;-70
2022/03/05 00:46:49;;;;;;;10.65;4.90;;;-2.90;90.60;;;;;;5054358;28;20021;-70
2022/03/05 00:49:14;;;;;;;12.57;5.25;;;-2.90;90.50;;;;;;5053384;28;20018;-70
2022/03/05 00:51:40;;;;;;;11.73;5.53;;;-3.00;90.50;;;;;;5054380;28;20032;-70
2022/03/05 00:54:06;;;;;;;12.95;5.78;;;-3.00;90.70;;;;;;5054934;28;20049;-70
2022/03/05 00:56:31;;;;;;;14.52;4.82;;;-3.00;91.00;;;;;;5054328;28;20028;-70
2022/03/05 00:58:57;;;;;;;12.55;4.47;;;-3.10;91.20;;;;;;5054500;28;20021;-70
2022/03/05 01:01:23;;;;;;;14.27;5.45;;;-3.20;91.30;;;;;;5054118;28;20025;-70
2022/03/05 01:03:48;;;;;;;10.60;5.20;;;-3.20;91.60;;;;;;5054141;28;20423;-70
2022/03/05 01:06:14;;;;;;;13.40;5.80;;;-3.20;91.90;;;;;;5054049;28;20027;-70
2022/03/05 01:08:40;;;;;;;14.85;5.68;;;-3.30;92.10;;;;;;5053945;28;20389;-70
2022/03/05 01:11:07;;;;;;;13.85;5.32;;;-3.30;92.20;;;;;;5054014;28;20039;-70
2022/03/05 01:13:32;;;;;;;11.80;5.90;;;-3.40;92.50;;;;;;5053874;28;20073;-70
2022/03/05 01:15:58;;;;;;;12.50;4.78;;;-3.40;92.50;;;;;;5053861;28;20099;-70
2022/03/05 01:18:24;;;;;;;10.95;4.97;;;-3.40;92.60;;;;;;5053678;28;20055;-70
2022/03/05 01:20:49;;;;;;;12.55;4.75;;;-3.50;92.60;;;;;;5053821;28;20040;-70
2022/03/05 01:23:15;;;;;;;14.20;5.65;;;-3.50;92.80;;;;;;5054048;28;20032;-70
2022/03/05 01:25:41;;;;;;;10.30;4.95;;;-3.50;93.00;;;;;;5054276;28;20017;-70
2022/03/05 01:28:06;;;;;;;9.60;5.63;;;-3.50;93.10;;;;;;5053659;28;20044;-71
2022/03/05 01:30:33;;;;;;;12.52;5.18;;;-3.50;93.20;;;;;;5053755;28;20032;-71
2022/03/05 01:32:59;;;;;;;13.05;5.05;;;-3.60;93.40;;;;;;5053895;28;20118;-71
2022/03/05 01:35:25;;;;;;;11.80;5.20;;;-3.60;93.60;;;;;;5053599;28;20035;-71
2022/03/05 01:37:51;;;;;;;14.27;5.35;;;-3.60;93.70;;;;;;5053523;28;20071;-71
2022/03/05 01:40:16;;;;;;;10.90;4.68;;;-3.60;93.80;;;;;;5053444;28;20017;-70
2022/03/05 01:42:42;;;;;;;12.30;5.30;;;-3.70;93.70;;;;;;5053462;28;20031;-70
2022/03/05 01:45:11;;;;;;;14.32;5.85;;;-3.70;93.80;;;;;;5053508;28;20025;-70
2022/03/05 01:47:38;;;;;;;12.20;5.05;;;-3.70;93.90;;;;;;5053417;28;20091;-70
2022/03/05 01:50:04;;;;;;;14.35;5.80;;;-3.70;93.90;;;;;;5053302;28;20059;-70
2022/03/05 01:52:30;;;;;;;14.35;5.13;;;-3.70;94.00;;;;;;5053120;28;20508;-70
2022/03/05 01:54:56;;;;;;;13.40;5.28;;;-3.80;94.10;;;;;;5053301;28;20029;-70
2022/03/05 01:57:22;;;;;;;11.88;5.45;;;-3.80;94.20;;;;;;5053042;28;20036;-70
2022/03/05 01:59:48;;;;;;;11.73;4.60;;;-3.80;94.20;;;;;;5051943;28;20500;-70
2022/03/05 02:02:14;;;;;;;14.40;5.60;;;-3.80;94.50;;;;;;5053254;28;20054;-70
2022/03/05 02:04:40;;;;;;;11.55;5.13;;;-3.80;94.60;;;;;;5053217;28;20078;-70
2022/03/05 02:07:05;;;;;;;15.05;5.43;;;-3.80;94.50;;;;;;5053824;28;20515;-70
2022/03/05 02:09:31;;;;;;;13.25;5.45;;;-3.90;94.70;;;;;;5053501;28;20488;-70
2022/03/05 02:11:57;;;;;;;12.25;5.35;;;-3.90;94.90;;;;;;5051948;28;20061;-70
2022/03/05 02:14:23;;;;;;;10.82;5.05;;;-4.00;94.80;;;;;;5053356;28;20043;-70
2022/03/05 02:16:49;;;;;;;12.13;5.18;;;-4.00;94.70;;;;;;5053725;28;20036;-70
2022/03/05 02:19:15;;;;;;;11.02;5.20;;;-4.00;94.70;;;;;;5053068;28;20017;-70
2022/03/05 02:21:40;;;;;;;10.77;5.03;;;-4.00;94.70;;;;;;5053249;28;20025;-70
2022/03/05 02:24:06;;;;;;;11.73;5.18;;;-4.10;94.70;;;;;;5053419;28;20028;-70
2022/03/05 02:26:32;;;;;;;11.73;4.85;;;-4.10;94.80;;;;;;5053511;28;20031;-70
2022/03/05 02:28:58;;;;;;;13.70;5.20;;;-4.10;94.90;;;;;;5053443;28;20025;-70
2022/03/05 02:31:23;;;;;;;11.07;5.43;;;-4.10;95.00;;;;;;5053118;28;20017;-70
2022/03/05 02:33:52;;;;;;;11.02;5.13;;;-4.20;95.00;;;;;;5053771;28;20025;-70
2022/03/05 02:36:20;;;;;;;11.23;4.70;;;-4.20;95.10;;;;;;5053043;28;20024;-71
2022/03/05 02:38:46;;;;;;;10.80;4.88;;;-4.20;95.10;;;;;;5051791;28;20033;-70
2022/03/05 02:41:11;;;;;;;12.23;6.22;;;-4.20;95.10;;;;;;5053421;28;20183;-70
2022/03/05 02:43:37;;;;;;;12.38;5.38;;;-4.20;95.10;;;;;;5053874;28;20420;-70
2022/03/05 02:46:03;;;;;;;11.75;4.70;;;-4.30;95.30;;;;;;5053619;28;20032;-71
2022/03/05 02:48:29;;;;;;;10.93;5.10;;;-4.30;95.60;;;;;;5052151;28;20029;-70
2022/03/05 02:50:55;;;;;;;12.15;5.18;;;-4.40;95.40;;;;;;5053778;28;20039;-71
2022/03/05 02:53:21;;;;;;;11.60;4.95;;;-4.40;95.20;;;;;;5053074;28;20488;-70
2022/03/05 02:55:47;;;;;;;11.55;4.78;;;-4.50;95.00;;;;;;5051652;28;20083;-71
2022/03/05 02:58:13;;;;;;;10.73;4.63;;;-4.50;95.10;;;;;;5052873;28;20036;-70
2022/03/05 03:00:39;;;;;;;14.00;5.07;;;-4.60;95.20;;;;;;5052992;28;20017;-71
2022/03/05 03:03:05;;;;;;;18.15;6.75;;;-4.70;95.60;;;;;;5051823;28;20026;-71
2022/03/05 03:05:31;;;;;;;20.45;9.55;;;-4.70;96.00;;;;;;5055233;28;20091;-71
2022/03/05 03:07:56;;;;;;;19.30;8.65;;;-4.70;96.30;;;;;;5056458;28;20100;-71
2022/03/05 03:10:22;;;;;;;13.95;5.63;;;-4.70;96.30;;;;;;5056582;28;20108;-70
2022/03/05 03:12:48;;;;;;;12.95;5.78;;;-4.70;96.40;;;;;;5056864;28;20025;-70
2022/03/05 03:15:15;;;;;;;9.68;4.97;;;-4.70;96.40;;;;;;5056887;28;20071;-70
2022/03/05 03:17:46;;;;;;;11.32;4.80;;;-4.80;96.30;;;;;;5054825;28;20025;-71
2022/03/05 03:20:14;;;;;;;15.35;5.45;;;-4.80;96.40;;;;;;5056125;28;20049;-70
2022/03/05 03:22:40;;;;;;;13.65;5.43;;;-4.80;96.40;;;;;;5054805;28;20110;-70
2022/03/05 03:25:07;;;;;;;16.77;7.97;;;-4.80;96.30;;;;;;5054732;28;20392;-70
2022/03/05 03:27:32;;;;;;;28.95;10.93;;;-4.90;96.50;;;;;;5054699;28;20072;-70
2022/03/05 03:29:58;;;;;;;16.73;7.95;;;-4.90;96.80;;;;;;5055821;28;20024;-70
2022/03/05 03:32:24;;;;;;;14.30;6.30;;;-4.90;97.10;;;;;;5055834;28;20104;-70
2022/03/05 03:34:49;;;;;;;13.50;5.72;;;-4.90;97.20;;;;;;5056383;28;20457;-70
2022/03/05 03:37:16;;;;;;;12.80;5.65;;;-4.90;97.10;;;;;;5056244;28;20021;-70
2022/03/05 03:39:41;;;;;;;10.20;4.47;;;-4.90;97.00;;;;;;5055910;28;20502;-70
2022/03/05 03:42:08;;;;;;;8.80;4.32;;;-4.90;97.00;;;;;;5056241;28;20017;-70
2022/03/05 03:44:33;;;;;;;11.02;5.22;;;-4.90;97.10;;;;;;5056377;28;20017;-70
2022/03/05 03:46:59;;;;;;;15.18;6.32;;;-4.90;97.20;;;;;;5056118;28;20032;-70
2022/03/05 03:49:25;;;;;;;11.13;4.63;;;-4.90;97.30;;;;;;5055736;28;20025;-70
2022/03/05 03:51:51;;;;;;;12.38;5.30;;;-4.90;97.20;;;;;;5055437;28;20044;-69
2022/03/05 03:54:17;;;;;;;14.25;5.50;;;-5.00;95.90;;;;;;5055719;28;20362;-70
2022/03/05 03:56:42;;;;;;;10.23;5.55;;;-5.10;96.30;;;;;;5055161;28;20044;-70
2022/03/05 03:59:08;;;;;;;14.07;5.90;;;-5.30;97.10;;;;;;5055527;28;20021;-70
2022/03/05 04:01:34;;;;;;;15.15;5.63;;;-5.50;97.60;;;;;;5055335;28;20498;-71
2022/03/05 04:04:00;;;;;;;11.77;5.40;;;-5.60;98.10;;;;;;5055274;28;20085;-71
2022/03/05 04:08:41;;;;;;;11.65;5.47;;;-5.60;98.70;;;;;;5053957;28;20025;-71
2022/03/05 04:09:12;;;;;;;13.68;6.05;;;-5.70;99.00;;;;;;5054906;28;20025;-71
2022/03/05 04:11:37;;;;;;;12.00;5.50;;;-5.70;99.30;;;;;;5055197;28;20031;-70
2022/03/05 04:14:03;;;;;;;13.27;5.80;;;-5.60;99.60;;;;;;5055064;28;20474;-70
2022/03/05 04:16:29;;;;;;;13.48;5.70;;;-5.60;99.50;;;;;;5054967;28;20099;-70
2022/03/05 04:18:55;;;;;;;10.25;5.28;;;-5.60;99.30;;;;;;5055022;28;20028;-71
2022/03/05 04:21:20;;;;;;;14.35;5.55;;;-5.50;99.10;;;;;;5054894;28;20012;-70
2022/03/05 04:23:46;;;;;;;12.30;5.35;;;-5.50;98.90;;;;;;5053579;28;20017;-70
2022/03/05 04:26:12;;;;;;;12.15;5.43;;;-5.60;99.00;;;;;;5055037;28;20033;-70
2022/03/05 04:28:37;;;;;;;11.90;5.15;;;-5.60;99.10;;;;;;5054673;28;20032;-71
2022/03/05 04:31:03;;;;;;;9.95;4.65;;;-5.60;99.20;;;;;;5054736;28;20082;-71
2022/03/05 04:33:29;;;;;;;7.57;4.10;;;-5.60;99.20;;;;;;5054701;28;20420;-71
2022/03/05 04:35:54;;;;;;;10.85;5.10;;;-5.60;99.30;;;;;;5054972;28;20367;-71
2022/03/05 04:38:20;;;;;;;15.55;6.35;;;-5.50;99.30;;;;;;5054500;28;20029;-70
2022/03/05 04:40:45;;;;;;;21.20;7.35;;;-5.50;99.40;;;;;;5054531;28;20032;-70
2022/03/05 04:43:11;;;;;;;23.48;8.85;;;-5.50;99.60;;;;;;5054513;28;20025;-70
2022/03/05 04:45:37;;;;;;;17.02;7.10;;;-5.50;99.30;;;;;;5053266;28;20052;-71
2022/03/05 04:48:03;;;;;;;17.88;6.80;;;-5.50;99.20;;;;;;5054435;28;20496;-71
2022/03/05 04:50:29;;;;;;;15.20;5.90;;;-5.50;98.80;;;;;;5053595;28;20055;-71
2022/03/05 04:52:55;;;;;;;12.23;5.60;;;-5.50;98.60;;;;;;5054579;28;20477;-71
2022/03/05 04:55:20;;;;;;;10.75;5.18;;;-5.50;98.60;;;;;;5054311;28;20025;-71
2022/03/05 04:57:46;;;;;;;12.65;5.43;;;-5.60;98.60;;;;;;5053910;28;20029;-70
2022/03/05 05:00:12;;;;;;;13.43;6.07;;;-5.60;98.70;;;;;;5054099;28;20029;-70
2022/03/05 05:02:38;;;;;;;11.50;6.03;;;-5.60;98.90;;;;;;5054151;28;20017;-70
2022/03/05 05:05:05;;;;;;;11.35;6.18;;;-5.60;99.10;;;;;;5054393;28;20491;-70
2022/03/05 05:07:31;;;;;;;12.35;5.47;;;-5.60;99.10;;;;;;5054110;28;20029;-71
2022/03/05 05:09:57;;;;;;;12.55;5.53;;;-5.60;99.10;;;;;;5054102;28;20032;-71
2022/03/05 05:12:23;;;;;;;10.57;5.38;;;-5.70;98.50;;;;;;5054845;28;20051;-71
2022/03/05 05:14:48;;;;;;;12.38;4.95;;;-5.80;98.40;;;;;;5053894;28;20024;-70
2022/03/05 05:17:14;;;;;;;12.30;4.68;;;-5.80;98.20;;;;;;5053768;28;20035;-70
2022/03/05 05:19:40;;;;;;;12.80;5.43;;;-5.90;98.00;;;;;;5053841;28;20100;-71
2022/03/05 05:22:06;;;;;;;13.88;5.80;;;-5.90;98.20;;;;;;5052564;28;20028;-70
2022/03/05 05:24:35;;;;;;;11.13;5.07;;;-6.00;98.50;;;;;;5053746;28;20074;-70
2022/03/05 05:27:02;;;;;;;12.77;4.95;;;-6.00;98.90;;;;;;5053782;28;20017;-70
2022/03/05 05:29:28;;;;;;;16.52;5.10;;;-6.00;99.20;;;;;;5052719;28;20025;-70
2022/03/05 05:31:55;;;;;;;13.60;5.55;;;-6.10;99.10;;;;;;5054145;28;20411;-70
2022/03/05 05:34:21;;;;;;;13.63;5.15;;;-6.10;99.10;;;;;;5053590;28;20152;-70
2022/03/05 05:36:47;;;;;;;13.27;5.72;;;-6.10;99.10;;;;;;5053484;28;20036;-70
2022/03/05 05:39:13;;;;;;;11.63;4.88;;;-6.10;99.10;;;;;;5053653;28;20036;-70
2022/03/05 05:41:40;;;;;;;12.98;4.82;;;-6.10;99.20;;;;;;5053488;28;20017;-70
2022/03/05 05:44:08;;;;;;;14.52;6.68;;;-6.10;99.20;;;;;;5052246;28;20106;-70
2022/03/05 05:46:34;;;;;;;12.80;7.10;;;-6.10;99.10;;;;;;5053440;28;20527;-70
2022/03/05 05:48:59;;;;;;;15.40;7.40;;;-6.30;99.90;;;;;;5053386;28;20032;-70
2022/03/05 05:51:27;;;;;;;18.77;6.72;;;-6.30;99.90;;;;;;5053389;28;20029;-70
2022/03/05 05:53:53;;;;;;;12.07;6.15;;;-6.30;99.90;;;;;;5053398;28;20025;-70
2022/03/05 05:56:19;;;;;;;12.32;6.03;;;-6.30;99.90;;;;;;5053416;28;20051;-71
2022/03/05 05:58:45;;;;;;;12.95;5.47;;;-6.30;99.90;;;;;;5053475;28;20104;-70
2022/03/05 06:01:11;;;;;;;13.27;4.60;;;-6.30;99.90;;;;;;5053549;28;20027;-70
2022/03/05 06:03:37;;;;;;;12.32;5.03;;;-6.20;99.90;;;;;;5053532;28;20100;-70
2022/03/05 06:06:03;;;;;;;22.02;7.35;;;-6.20;99.90;;;;;;5053522;28;20418;-70
2022/03/05 06:08:28;;;;;;;28.70;10.15;;;-6.20;99.90;;;;;;5053445;28;20029;-70
2022/03/05 06:10:57;;;;;;;39.95;15.05;;;-6.20;99.90;;;;;;5053434;28;20025;-70
2022/03/05 06:13:23;;;;;;;38.45;15.93;;;-6.20;99.40;;;;;;5051791;28;20166;-70
2022/03/05 06:15:50;;;;;;;22.90;10.05;;;-6.30;99.00;;;;;;5053470;28;20078;-70
2022/03/05 06:18:15;;;;;;;21.35;7.50;;;-6.30;98.90;;;;;;5053268;28;20021;-70
2022/03/05 06:20:41;;;;;;;15.93;5.47;;;-6.30;98.90;;;;;;5052993;28;20021;-70
2022/03/05 06:23:07;;;;;;;13.15;5.45;;;-6.30;99.10;;;;;;5053010;28;20021;-70
2022/03/05 06:25:32;;;;;;;14.23;5.53;;;-6.30;99.10;;;;;;5051851;28;20021;-71
2022/03/05 06:27:58;;;;;;;11.80;5.60;;;-6.30;99.40;;;;;;5051847;28;20025;-71
2022/03/05 06:30:24;;;;;;;12.32;5.63;;;-6.30;99.20;;;;;;5052916;28;20029;-71
2022/03/05 06:32:50;;;;;;;14.65;6.07;;;-6.30;99.20;;;;;;5053022;28;20104;-71
2022/03/05 06:35:16;;;;;;;14.27;5.72;;;-6.30;99.40;;;;;;5053042;28;20400;-71
2022/03/05 06:37:42;;;;;;;15.40;6.00;;;-6.30;99.80;;;;;;5052026;28;20025;-71
2022/03/05 06:40:11;;;;;;;13.48;5.70;;;-6.30;99.90;;;;;;5055494;28;20075;-71
2022/03/05 06:42:45;;;;;;;14.35;5.20;;;-6.20;99.90;;;;;;5055504;28;20477;-71
2022/03/05 06:45:11;;;;;;;16.50;6.85;;;-6.20;99.90;;;;;;5055493;28;20070;-71
2022/03/05 06:47:38;;;;;;;24.50;9.25;;;-6.10;99.90;;;;;;5055657;28;20502;-71
2022/03/05 06:50:05;;;;;;;26.80;10.48;;;-6.00;99.90;;;;;;5055633;28;20079;-71
2022/03/05 06:52:31;;;;;;;24.42;9.93;;;-6.00;99.90;;;;;;5088948;28;20429;-71
2022/03/05 06:54:57;;;;;;;16.05;7.32;;;-6.00;99.90;;;;;;5056780;28;20147;-71
2022/03/05 06:57:24;;;;;;;16.10;6.82;;;-6.00;99.90;;;;;;5056421;28;20036;-71
2022/03/05 06:59:50;;;;;;;13.68;6.25;;;-6.00;99.90;;;;;;5056682;28;20023;-71
2022/03/05 07:02:16;;;;;;;14.60;6.90;;;-6.00;99.90;;;;;;5055082;28;20048;-71
2022/03/05 07:04:42;;;;;;;19.05;7.57;;;-6.00;99.90;;;;;;5056459;28;20079;-71
2022/03/05 07:07:08;;;;;;;14.25;6.22;;;-5.90;99.90;;;;;;5056320;28;20017;-71
2022/03/05 07:09:34;;;;;;;15.43;6.10;;;-5.90;99.90;;;;;;5056177;28;20025;-71
2022/03/05 07:12:00;;;;;;;14.75;6.20;;;-5.90;99.90;;;;;;5056203;28;20021;-71
2022/03/05 07:14:26;;;;;;;15.43;7.43;;;-5.90;99.90;;;;;;5054876;28;20075;-71
2022/03/05 07:16:52;;;;;;;15.02;6.18;;;-5.80;99.90;;;;;;5055961;28;20013;-71
2022/03/05 07:19:18;;;;;;;15.30;6.10;;;-5.80;99.90;;;;;;5056053;28;20025;-71
2022/03/05 07:21:43;;;;;;;16.88;7.40;;;-5.70;99.90;;;;;;5055965;28;20025;-71
2022/03/05 07:24:09;;;;;;;18.70;7.55;;;-5.70;99.90;;;;;;5054799;28;20025;-72
2022/03/05 07:26:35;;;;;;;14.82;6.78;;;-5.70;99.90;;;;;;5054814;28;20028;-71
2022/03/05 07:29:01;;;;;;;14.73;6.05;;;-5.60;99.90;;;;;;5055943;28;20032;-70
2022/03/05 07:31:27;;;;;;;13.55;6.35;;;-5.60;99.90;;;;;;5056943;28;20367;-71
2022/03/05 07:33:53;;;;;;;15.85;6.78;;;-5.60;99.90;;;;;;5057368;28;20422;-71
2022/03/05 07:36:19;;;;;;;14.90;6.43;;;-5.50;99.90;;;;;;5056841;28;20481;-71
2022/03/05 07:38:45;;;;;;;16.42;7.00;;;-5.40;99.90;;;;;;5054318;28;20361;-70
2022/03/05 07:41:12;;;;;;;19.98;6.82;;;-5.40;99.90;;;;;;5055953;28;20104;-71
2022/03/05 07:43:38;;;;;;;15.43;7.15;;;-5.30;99.90;;;;;;5055760;28;20090;-71
2022/03/05 07:46:04;;;;;;;19.42;7.88;;;-5.30;99.90;;;;;;5054886;28;20021;-71
2022/03/05 07:48:30;;;;;;;15.18;7.53;;;-5.20;99.90;;;;;;5055464;28;20117;-70
2022/03/05 07:50:59;;;;;;;16.55;6.72;;;-5.10;99.90;;;;;;5055078;28;20075;-71
2022/03/05 07:53:26;;;;;;;21.90;8.07;;;-5.00;99.90;;;;;;5055852;28;20017;-71
2022/03/05 07:55:52;;;;;;;20.92;8.70;;;-5.00;99.90;;;;;;5055467;28;20017;-71
2022/03/05 07:58:21;;;;;;;17.15;7.30;;;-4.90;99.90;;;;;;5055203;28;20036;-71
2022/03/05 08:00:47;;;;;;;17.05;8.13;;;-4.80;99.90;;;;;;5055338;28;20021;-71
2022/03/05 08:03:13;;;;;;;19.55;8.05;;;-4.70;99.90;;;;;;5055462;28;20033;-72
2022/03/05 08:05:38;;;;;;;20.25;9.88;;;-4.60;99.90;;;;;;5056640;28;20024;-71
2022/03/05 08:08:04;;;;;;;27.10;11.05;;;-4.60;99.90;;;;;;5055549;28;20100;-72
2022/03/05 08:10:30;;;;;;;24.15;10.55;;;-4.50;99.90;;;;;;5055169;28;20036;-71
2022/03/05 08:12:56;;;;;;;22.75;10.35;;;-4.50;99.90;;;;;;5055116;28;20057;-71
2022/03/05 08:15:22;;;;;;;30.05;11.30;;;-4.40;99.90;;;;;;5055061;28;20038;-71
2022/03/05 08:18:00;;;;;;;24.27;10.77;;;-4.30;99.90;;;;;;5055531;28;20024;-71
2022/03/05 08:20:28;;;;;;;23.45;10.32;;;-4.20;99.90;;;;;;5055145;28;20023;-71
2022/03/05 08:22:54;;;;;;;24.75;11.20;;;-4.20;99.90;;;;;;5054941;28;20025;-71
2022/03/05 08:25:20;;;;;;;33.45;11.88;;;-4.10;99.90;;;;;;5055435;28;20025;-71
2022/03/05 08:27:47;;;;;;;24.95;10.07;;;-4.00;99.90;;;;;;5054847;28;20036;-71
2022/03/05 08:30:13;;;;;;;21.60;10.48;;;-3.90;99.80;;;;;;5054699;28;20039;-71
2022/03/05 08:32:39;;;;;;;27.35;9.85;;;-3.80;99.30;;;;;;5055053;28;20033;-71
2022/03/05 08:35:07;;;;;;;24.45;9.95;;;-3.70;99.10;;;;;;5055003;28;20086;-71
2022/03/05 08:37:33;;;;;;;21.00;9.20;;;-3.60;99.00;;;;;;5055071;28;20033;-71
2022/03/05 08:39:59;;;;;;;24.60;10.18;;;-3.50;98.80;;;;;;5053681;28;20024;-71
2022/03/05 08:42:24;;;;;;;18.90;10.68;;;-3.40;98.80;;;;;;5054918;28;20021;-71
2022/03/05 08:44:50;;;;;;;20.88;9.57;;;-3.30;98.70;;;;;;5054549;28;20048;-71
2022/03/05 08:47:16;;;;;;;21.85;9.43;;;-3.20;98.60;;;;;;5054928;28;20028;-69
2022/03/05 08:49:42;;;;;;;22.23;9.75;;;-3.10;98.60;;;;;;5054741;28;20021;-68
2022/03/05 08:52:08;;;;;;;19.55;9.35;;;-3.00;98.30;;;;;;5054885;28;20413;-70
2022/03/05 08:54:34;;;;;;;25.58;10.15;;;-2.90;98.00;;;;;;5054550;28;20384;-70
2022/03/05 08:57:00;;;;;;;19.80;9.57;;;-2.80;97.90;;;;;;5054068;28;20116;-70
2022/03/05 08:59:25;;;;;;;21.25;9.93;;;-2.70;97.50;;;;;;5052835;28;20108;-70
2022/03/05 09:01:51;;;;;;;19.75;9.77;;;-2.60;96.90;;;;;;5054049;28;20434;-70
2022/03/05 09:04:17;;;;;;;19.33;9.13;;;-2.50;96.20;;;;;;5054114;28;20025;-71
2022/03/05 09:06:43;;;;;;;32.60;12.45;;;-2.40;95.50;;;;;;5054037;28;20108;-70
2022/03/05 09:09:08;;;;;;;24.58;10.38;;;-2.30;95.00;;;;;;5052646;28;20033;-70
2022/03/05 09:11:37;;;;;;;28.10;11.85;;;-2.20;94.80;;;;;;5086204;28;20562;-69
2022/03/05 09:14:06;;;;;;;32.20;12.23;;;-2.10;94.70;;;;;;5054129;28;20025;-70
2022/03/05 09:16:34;;;;;;;25.83;12.43;;;-2.00;94.40;;;;;;5053857;28;20384;-70
2022/03/05 09:19:00;;;;;;;28.73;14.57;;;-1.90;94.10;;;;;;5054010;28;20076;-70
2022/03/05 09:21:25;;;;;;;37.97;18.13;;;-1.90;93.90;;;;;;5054401;28;20105;-70
2022/03/05 09:23:51;;;;;;;47.58;21.83;;;-1.80;93.80;;;;;;5053764;28;20118;-70
2022/03/05 09:26:17;;;;;;;66.90;30.02;;;-1.70;93.70;;;;;;5054302;28;20481;-70
2022/03/05 09:28:44;;;;;;;66.15;31.42;;;-1.60;93.50;;;;;;5053633;28;20025;-70
2022/03/05 09:31:10;;;;;;;53.58;25.95;;;-1.40;93.50;;;;;;5054301;28;20065;-70
2022/03/05 09:33:36;;;;;;;52.35;24.88;;;-1.30;93.30;;;;;;5054843;28;20398;-70
2022/03/05 09:36:02;;;;;;;47.42;21.13;;;-1.30;93.10;;;;;;5053516;28;20055;-70
2022/03/05 09:38:28;;;;;;;40.55;20.15;;;-1.10;92.50;;;;;;5053363;28;20048;-70
2022/03/05 09:40:54;;;;;;;24.52;10.98;;;-1.10;92.00;;;;;;5054070;28;20060;-70
2022/03/05 09:43:21;;;;;;;26.77;12.85;;;-1.00;90.50;;;;;;5053989;28;20016;-69
2022/03/05 09:45:47;;;;;;;32.45;14.73;;;-0.90;89.40;;;;;;5053451;28;20018;-70
2022/03/05 09:48:16;;;;;;;28.15;13.73;;;-0.90;90.00;;;;;;5052275;28;20437;-70
2022/03/05 09:50:42;;;;;;;31.27;15.30;;;-0.80;89.80;;;;;;5053406;28;20029;-70
2022/03/05 09:53:07;;;;;;;34.30;14.82;;;-0.80;90.20;;;;;;5053999;28;20048;-70
2022/03/05 09:55:33;;;;;;;30.45;13.68;;;-0.60;90.10;;;;;;5085562;28;20484;-70
2022/03/05 09:57:59;;;;;;;28.13;12.73;;;-0.50;89.40;;;;;;5053148;28;20443;-70
2022/03/05 10:00:26;;;;;;;23.35;12.02;;;-0.40;88.70;;;;;;5051956;28;20017;-70
2022/03/05 10:02:52;;;;;;;28.65;13.57;;;-0.30;87.20;;;;;;5053569;28;20127;-70
2022/03/05 10:05:26;;;;;;;25.63;13.98;;;-0.10;87.00;;;;;;5053522;28;20021;-70
2022/03/05 10:08:10;;;;;;;25.23;13.13;;;-0.10;86.70;;;;;;5053311;28;20027;-70
2022/03/05 10:10:43;;;;;;;25.05;12.52;;;0.00;84.90;;;;;;5053213;28;20021;-70
2022/03/05 10:13:19;;;;;;;25.85;13.32;;;0.10;82.50;;;;;;5053159;28;20021;-70
2022/03/05 10:15:45;;;;;;;24.38;12.30;;;0.20;82.10;;;;;;5057861;28;20492;-70
2022/03/05 10:18:11;;;;;;;27.50;12.20;;;0.30;80.00;;;;;;5057509;28;20033;-70
2022/03/05 10:20:44;;;;;;;25.20;11.70;;;0.40;79.70;;;;;;5058030;28;20017;-70
2022/03/05 10:23:11;;;;;;;28.58;12.60;;;0.40;79.40;;;;;;5058103;28;20468;-70
2022/03/05 10:25:37;;;;;;;27.42;12.65;;;0.50;79.60;;;;;;5057426;28;20021;-68
2022/03/05 10:28:05;;;;;;;26.48;12.05;;;0.60;79.40;;;;;;5057400;28;20036;-70
2022/03/05 10:30:32;;;;;;;25.52;12.30;;;0.70;78.60;;;;;;5057022;28;20066;-70
2022/03/05 10:32:58;;;;;;;27.58;12.43;;;0.80;79.50;;;;;;5057378;28;20021;-70
2022/03/05 10:35:24;;;;;;;26.38;13.00;;;0.80;79.00;;;;;;5057034;28;20029;-70
2022/03/05 10:37:53;;;;;;;22.15;11.98;;;0.90;78.20;;;;;;5057135;28;20388;-70
2022/03/05 10:40:33;;;;;;;26.42;11.55;;;0.90;79.00;;;;;;5056794;28;20074;-70
2022/03/05 10:43:08;;;;;;;26.92;13.88;;;1.00;78.50;;;;;;5057010;28;20516;-70
2022/03/05 10:45:55;;;;;;;26.70;12.88;;;1.10;78.60;;;;;;5056930;28;20465;-69
2022/03/05 10:48:24;;;;;;;22.83;10.45;;;1.20;77.10;;;;;;5055353;28;20400;-69
2022/03/05 10:51:12;;;;;;;24.08;9.55;;;1.40;77.20;;;;;;5055627;28;20411;-69
2022/03/05 10:53:47;;;;;;;16.70;8.75;;;1.50;75.80;;;;;;5056644;28;20025;-69
2022/03/05 10:56:32;;;;;;;17.77;8.25;;;1.60;74.50;;;;;;5056824;28;20029;-72
2022/03/05 10:59:04;;;;;;;16.77;7.97;;;1.70;73.40;;;;;;5056402;28;20025;-70
2022/03/05 11:01:32;;;;;;;18.08;8.65;;;1.70;73.20;;;;;;5056979;28;20056;-70
2022/03/05 11:03:59;;;;;;;15.23;8.10;;;1.70;74.10;;;;;;5056763;28;20021;-70
2022/03/05 11:06:27;;;;;;;14.43;6.60;;;1.80;73.80;;;;;;5056337;28;20096;-70
2022/03/05 11:08:53;;;;;;;16.02;6.97;;;1.90;73.40;;;;;;5056564;28;20095;-71
2022/03/05 11:11:20;;;;;;;13.57;7.03;;;1.90;72.60;;;;;;5056876;28;20027;-71
2022/03/05 11:13:46;;;;;;;14.95;8.10;;;2.00;71.60;;;;;;5054977;28;20033;-70
2022/03/05 11:16:12;;;;;;;17.98;7.60;;;2.00;71.70;;;;;;5056285;28;20025;-70
2022/03/05 11:18:42;;;;;;;13.70;7.25;;;2.20;74.50;;;;;;5056055;28;20057;-70
2022/03/05 11:21:08;;;;;;;14.65;7.18;;;2.30;71.30;;;;;;5056132;28;20024;-71
2022/03/05 11:23:36;;;;;;;14.43;7.18;;;2.40;70.50;;;;;;5056165;28;20021;-72
2022/03/05 11:26:04;;;;;;;17.15;7.60;;;2.40;68.60;;;;;;5055697;28;20354;-71
2022/03/05 11:28:44;;;;;;;16.58;7.50;;;2.40;70.00;;;;;;5055423;28;20037;-72
2022/03/05 11:31:20;;;;;;;17.58;7.65;;;2.50;68.90;;;;;;5056080;28;20096;-72
2022/03/05 11:33:47;;;;;;;16.60;8.90;;;2.60;67.20;;;;;;5056498;28;20032;-71
2022/03/05 11:36:31;;;;;;;14.43;8.02;;;2.60;67.20;;;;;;5056698;28;20393;-72
2022/03/05 11:39:12;;;;;;;16.70;8.32;;;2.60;66.10;;;;;;5054422;28;20048;-71
2022/03/05 11:41:50;;;;;;;16.75;7.93;;;2.70;65.30;;;;;;5056084;28;20096;-71
2022/03/05 11:44:17;;;;;;;17.35;7.90;;;2.80;65.90;;;;;;5056164;28;20064;-72
2022/03/05 11:46:44;;;;;;;17.75;8.98;;;2.80;64.70;;;;;;5054491;28;20032;-72
2022/03/05 11:49:12;;;;;;;15.65;8.20;;;2.90;65.30;;;;;;5055864;28;20052;-72
2022/03/05 11:51:58;;;;;;;15.05;7.93;;;2.90;64.80;;;;;;5054203;28;20441;-71
2022/03/05 11:54:25;;;;;;;15.55;7.65;;;3.00;64.80;;;;;;5055724;28;20025;-71
2022/03/05 11:57:11;;;;;;;18.55;9.90;;;3.10;63.30;;;;;;5055732;28;20033;-72
2022/03/05 11:59:38;;;;;;;15.82;8.60;;;3.10;64.30;;;;;;5055582;28;20021;-72
2022/03/05 12:02:04;;;;;;;15.82;8.75;;;3.20;64.10;;;;;;5055703;28;20465;-71
2022/03/05 12:04:31;;;;;;;15.95;8.43;;;3.30;62.90;;;;;;5055517;28;20029;-71
2022/03/05 12:07:13;;;;;;;16.75;8.45;;;3.40;62.90;;;;;;5055330;28;20013;-70
2022/03/05 12:09:41;;;;;;;25.23;12.63;;;3.40;61.10;;;;;;5055178;28;20033;-71
2022/03/05 12:12:09;;;;;;;16.67;9.55;;;3.40;61.80;;;;;;5087424;28;20029;-71
2022/03/05 12:15:06;;;;;;;15.65;8.35;;;3.50;59.40;;;;;;5055166;28;20104;-72
2022/03/05 12:17:46;;;;;;;19.23;8.93;;;3.40;59.30;;;;;;5055595;28;20460;-72
2022/03/05 12:20:16;;;;;;;17.27;8.52;;;3.40;59.60;;;;;;5054995;28;20091;-71
2022/03/05 12:23:12;;;;;;;14.18;7.40;;;3.50;62.10;;;;;;5055000;28;20024;-71
2022/03/05 12:25:40;;;;;;;15.30;7.75;;;3.60;61.40;;;;;;5053611;28;20116;-71
2022/03/05 12:28:13;;;;;;;16.58;7.72;;;3.70;60.80;;;;;;5054854;28;20456;-71
2022/03/05 12:30:39;;;;;;;15.32;7.47;;;3.70;61.40;;;;;;5053632;28;20032;-71
2022/03/05 12:33:08;;;;;;;14.95;7.78;;;3.80;60.10;;;;;;5055107;28;20025;-70
2022/03/05 12:35:35;;;;;;;14.52;8.02;;;3.80;59.60;;;;;;5055016;28;20032;-71